sensor_id;sensor_type;location;lat;lon;timestamp;P1;durP1;ratioP1;P2;durP2;ratioP2
4244;SDS011;2136;48.502;9.194;2024-01-27T00:00:16;4.40;;;2.00;;
4244;SDS011;2136;48.502;9.194;2024-01-27T00:02:43;5.77;;;2.27;;
4244;SDS011;2136;48.502;9.194;2024-01-27T00:05:10;2.83;;;2.53;;
4244;SDS011;2136;48.502;9.194;2024-01-27T00:07:37;4.57;;;3.10;;
4244;SDS011;2136;48.502;9.194;2024-01-27T00:10:04;6.70;;;4.40;;
4244;SDS011;2136;48.502;9.194;2024-01-27T00:12:33;5.30;;;3.77;;
4244;SDS011;2136;48.502;9.194;2024-01-27T00:15:00;5.17;;;4.30;;
4244;SDS011;2136;48.502;9.194;2024-01-27T00:17:27;7.90;;;5.03;;
4244;SDS011;2136;48.502;9.194;2024-01-27T00:19:54;7.80;;;4.80;;
4244;SDS011;2136;48.502;9.194;2024-01-27T00:22:21;8.47;;;5.03;;
4244;SDS011;2136;48.502;9.194;2024-01-27T00:24:47;8.17;;;4.80;;
4244;SDS011;2136;48.502;9.194;2024-01-27T00:27:14;11.13;;;5.27;;
4244;SDS011;2136;48.502;9.194;2024-01-27T00:29:42;6.03;;;4.73;;
4244;SDS011;2136;48.502;9.194;2024-01-27T00:32:09;8.50;;;5.33;;
4244;SDS011;2136;48.502;9.194;2024-01-27T00:34:36;4.90;;;4.20;;
4244;SDS011;2136;48.502;9.194;2024-01-27T00:37:03;6.00;;;4.37;;
4244;SDS011;2136;48.502;9.194;2024-01-27T00:39:31;4.10;;;3.70;;
4244;SDS011;2136;48.502;9.194;2024-01-27T00:41:57;11.53;;;4.13;;
4244;SDS011;2136;48.502;9.194;2024-01-27T00:44:24;7.47;;;5.10;;
4244;SDS011;2136;48.502;9.194;2024-01-27T00:46:52;9.33;;;6.37;;
4244;SDS011;2136;48.502;9.194;2024-01-27T00:49:19;6.50;;;5.17;;
4244;SDS011;2136;48.502;9.194;2024-01-27T00:51:46;8.60;;;5.10;;
4244;SDS011;2136;48.502;9.194;2024-01-27T00:54:13;6.40;;;5.17;;
4244;SDS011;2136;48.502;9.194;2024-01-27T00:56:40;5.93;;;5.00;;
4244;SDS011;2136;48.502;9.194;2024-01-27T00:59:07;8.03;;;5.80;;
4244;SDS011;2136;48.502;9.194;2024-01-27T01:01:33;10.07;;;5.60;;
4244;SDS011;2136;48.502;9.194;2024-01-27T01:04:02;14.37;;;7.17;;
4244;SDS011;2136;48.502;9.194;2024-01-27T01:06:29;11.03;;;6.70;;
4244;SDS011;2136;48.502;9.194;2024-01-27T01:08:55;13.63;;;7.33;;
4244;SDS011;2136;48.502;9.194;2024-01-27T01:11:22;12.73;;;6.00;;
4244;SDS011;2136;48.502;9.194;2024-01-27T01:13:49;12.83;;;6.63;;
4244;SDS011;2136;48.502;9.194;2024-01-27T01:16:16;8.87;;;5.53;;
4244;SDS011;2136;48.502;9.194;2024-01-27T01:18:43;9.03;;;5.63;;
4244;SDS011;2136;48.502;9.194;2024-01-27T01:21:11;6.53;;;4.70;;
4244;SDS011;2136;48.502;9.194;2024-01-27T01:23:37;7.30;;;4.30;;
4244;SDS011;2136;48.502;9.194;2024-01-27T01:26:04;8.67;;;4.67;;
4244;SDS011;2136;48.502;9.194;2024-01-27T01:28:31;7.00;;;4.77;;
4244;SDS011;2136;48.502;9.194;2024-01-27T01:30:58;7.67;;;4.10;;
4244;SDS011;2136;48.502;9.194;2024-01-27T01:33:25;8.43;;;4.73;;
4244;SDS011;2136;48.502;9.194;2024-01-27T01:35:51;8.87;;;4.10;;
4244;SDS011;2136;48.502;9.194;2024-01-27T01:38:20;4.33;;;3.50;;
4244;SDS011;2136;48.502;9.194;2024-01-27T01:40:47;5.33;;;3.83;;
4244;SDS011;2136;48.502;9.194;2024-01-27T01:43:13;6.47;;;4.83;;
4244;SDS011;2136;48.502;9.194;2024-01-27T01:45:40;8.00;;;4.40;;
4244;SDS011;2136;48.502;9.194;2024-01-27T01:48:07;6.70;;;4.43;;
4244;SDS011;2136;48.502;9.194;2024-01-27T01:50:34;7.83;;;5.10;;
4244;SDS011;2136;48.502;9.194;2024-01-27T01:53:01;7.43;;;5.17;;
4244;SDS011;2136;48.502;9.194;2024-01-27T01:55:30;6.90;;;6.10;;
4244;SDS011;2136;48.502;9.194;2024-01-27T01:57:57;6.00;;;4.40;;
4244;SDS011;2136;48.502;9.194;2024-01-27T02:00:24;7.67;;;4.80;;
4244;SDS011;2136;48.502;9.194;2024-01-27T02:02:51;6.10;;;4.80;;
4244;SDS011;2136;48.502;9.194;2024-01-27T02:05:18;7.40;;;4.43;;
4244;SDS011;2136;48.502;9.194;2024-01-27T02:07:45;4.30;;;3.93;;
4244;SDS011;2136;48.502;9.194;2024-01-27T02:10:15;5.10;;;3.63;;
4244;SDS011;2136;48.502;9.194;2024-01-27T02:12:44;7.53;;;4.33;;
4244;SDS011;2136;48.502;9.194;2024-01-27T02:15:11;5.07;;;4.13;;
4244;SDS011;2136;48.502;9.194;2024-01-27T02:17:39;7.13;;;3.77;;
4244;SDS011;2136;48.502;9.194;2024-01-27T02:20:06;4.13;;;3.57;;
4244;SDS011;2136;48.502;9.194;2024-01-27T02:22:34;4.80;;;3.20;;
4244;SDS011;2136;48.502;9.194;2024-01-27T02:25:03;9.50;;;3.73;;
4244;SDS011;2136;48.502;9.194;2024-01-27T02:27:29;6.10;;;3.50;;
4244;SDS011;2136;48.502;9.194;2024-01-27T02:29:56;4.80;;;3.50;;
4244;SDS011;2136;48.502;9.194;2024-01-27T02:32:23;8.00;;;3.87;;
4244;SDS011;2136;48.502;9.194;2024-01-27T02:34:50;9.80;;;3.50;;
4244;SDS011;2136;48.502;9.194;2024-01-27T02:37:17;5.47;;;3.27;;
4244;SDS011;2136;48.502;9.194;2024-01-27T02:39:44;6.93;;;3.90;;
4244;SDS011;2136;48.502;9.194;2024-01-27T02:42:12;7.70;;;3.70;;
4244;SDS011;2136;48.502;9.194;2024-01-27T02:44:39;4.50;;;3.20;;
4244;SDS011;2136;48.502;9.194;2024-01-27T02:47:06;5.30;;;3.10;;
4244;SDS011;2136;48.502;9.194;2024-01-27T02:49:32;5.43;;;3.20;;
4244;SDS011;2136;48.502;9.194;2024-01-27T02:51:59;4.13;;;3.40;;
4244;SDS011;2136;48.502;9.194;2024-01-27T02:54:26;3.47;;;3.17;;
4244;SDS011;2136;48.502;9.194;2024-01-27T02:56:53;7.20;;;3.33;;
4244;SDS011;2136;48.502;9.194;2024-01-27T02:59:21;4.87;;;4.00;;
4244;SDS011;2136;48.502;9.194;2024-01-27T03:01:48;3.70;;;2.83;;
4244;SDS011;2136;48.502;9.194;2024-01-27T03:04:15;7.00;;;3.70;;
4244;SDS011;2136;48.502;9.194;2024-01-27T03:06:41;5.90;;;2.90;;
4244;SDS011;2136;48.502;9.194;2024-01-27T03:09:09;3.83;;;3.03;;
4244;SDS011;2136;48.502;9.194;2024-01-27T03:11:36;4.80;;;2.93;;
4244;SDS011;2136;48.502;9.194;2024-01-27T03:14:03;6.13;;;3.30;;
4244;SDS011;2136;48.502;9.194;2024-01-27T03:16:31;3.93;;;2.90;;
4244;SDS011;2136;48.502;9.194;2024-01-27T03:18:58;3.03;;;2.83;;
4244;SDS011;2136;48.502;9.194;2024-01-27T03:21:25;7.17;;;2.70;;
4244;SDS011;2136;48.502;9.194;2024-01-27T03:23:52;3.47;;;2.70;;
4244;SDS011;2136;48.502;9.194;2024-01-27T03:26:19;7.77;;;3.43;;
4244;SDS011;2136;48.502;9.194;2024-01-27T03:28:45;2.80;;;2.63;;
4244;SDS011;2136;48.502;9.194;2024-01-27T03:31:12;3.93;;;2.20;;
4244;SDS011;2136;48.502;9.194;2024-01-27T03:33:40;3.30;;;2.37;;
4244;SDS011;2136;48.502;9.194;2024-01-27T03:36:09;3.53;;;1.90;;
4244;SDS011;2136;48.502;9.194;2024-01-27T03:38:36;7.90;;;2.90;;
4244;SDS011;2136;48.502;9.194;2024-01-27T03:41:03;3.40;;;2.40;;
4244;SDS011;2136;48.502;9.194;2024-01-27T03:43:30;3.23;;;2.50;;
4244;SDS011;2136;48.502;9.194;2024-01-27T03:45:57;6.10;;;3.60;;
4244;SDS011;2136;48.502;9.194;2024-01-27T03:48:24;8.57;;;3.90;;
4244;SDS011;2136;48.502;9.194;2024-01-27T03:50:52;5.23;;;3.43;;
4244;SDS011;2136;48.502;9.194;2024-01-27T03:53:19;5.00;;;3.53;;
4244;SDS011;2136;48.502;9.194;2024-01-27T03:55:46;7.60;;;3.20;;
4244;SDS011;2136;48.502;9.194;2024-01-27T03:58:13;5.07;;;3.60;;
4244;SDS011;2136;48.502;9.194;2024-01-27T04:00:39;5.07;;;3.00;;
4244;SDS011;2136;48.502;9.194;2024-01-27T04:03:06;6.63;;;3.00;;
4244;SDS011;2136;48.502;9.194;2024-01-27T04:05:34;3.40;;;3.10;;
4244;SDS011;2136;48.502;9.194;2024-01-27T04:08:03;5.13;;;3.23;;
4244;SDS011;2136;48.502;9.194;2024-01-27T04:10:31;5.23;;;3.87;;
4244;SDS011;2136;48.502;9.194;2024-01-27T04:12:57;5.37;;;3.30;;
4244;SDS011;2136;48.502;9.194;2024-01-27T04:15:24;5.27;;;3.27;;
4244;SDS011;2136;48.502;9.194;2024-01-27T04:17:51;3.60;;;2.80;;
4244;SDS011;2136;48.502;9.194;2024-01-27T04:20:19;5.87;;;2.30;;
4244;SDS011;2136;48.502;9.194;2024-01-27T04:22:46;3.97;;;2.97;;
4244;SDS011;2136;48.502;9.194;2024-01-27T04:25:14;4.30;;;2.83;;
4244;SDS011;2136;48.502;9.194;2024-01-27T04:27:41;5.23;;;2.73;;
4244;SDS011;2136;48.502;9.194;2024-01-27T04:30:08;3.53;;;2.43;;
4244;SDS011;2136;48.502;9.194;2024-01-27T04:32:37;5.03;;;2.17;;
4244;SDS011;2136;48.502;9.194;2024-01-27T04:35:07;5.13;;;2.63;;
4244;SDS011;2136;48.502;9.194;2024-01-27T04:37:35;3.30;;;2.50;;
4244;SDS011;2136;48.502;9.194;2024-01-27T04:40:02;3.17;;;2.07;;
4244;SDS011;2136;48.502;9.194;2024-01-27T04:42:32;3.73;;;2.67;;
4244;SDS011;2136;48.502;9.194;2024-01-27T04:44:59;4.77;;;2.63;;
4244;SDS011;2136;48.502;9.194;2024-01-27T04:47:25;4.47;;;2.60;;
4244;SDS011;2136;48.502;9.194;2024-01-27T04:49:53;2.97;;;2.33;;
4244;SDS011;2136;48.502;9.194;2024-01-27T04:52:19;4.97;;;2.87;;
4244;SDS011;2136;48.502;9.194;2024-01-27T04:54:47;3.37;;;2.67;;
4244;SDS011;2136;48.502;9.194;2024-01-27T04:57:13;2.50;;;2.30;;
4244;SDS011;2136;48.502;9.194;2024-01-27T04:59:42;4.10;;;2.50;;
4244;SDS011;2136;48.502;9.194;2024-01-27T05:02:08;9.50;;;2.97;;
4244;SDS011;2136;48.502;9.194;2024-01-27T05:04:36;3.80;;;2.90;;
4244;SDS011;2136;48.502;9.194;2024-01-27T05:07:03;3.03;;;2.50;;
4244;SDS011;2136;48.502;9.194;2024-01-27T05:09:30;6.07;;;2.90;;
4244;SDS011;2136;48.502;9.194;2024-01-27T05:11:59;4.57;;;2.87;;
4244;SDS011;2136;48.502;9.194;2024-01-27T05:14:26;6.77;;;3.77;;
4244;SDS011;2136;48.502;9.194;2024-01-27T05:16:54;4.93;;;3.23;;
4244;SDS011;2136;48.502;9.194;2024-01-27T05:19:21;6.90;;;4.53;;
4244;SDS011;2136;48.502;9.194;2024-01-27T05:21:47;3.67;;;3.37;;
4244;SDS011;2136;48.502;9.194;2024-01-27T05:24:14;8.10;;;3.85;;
4244;SDS011;2136;48.502;9.194;2024-01-27T05:26:41;4.73;;;3.20;;
4244;SDS011;2136;48.502;9.194;2024-01-27T05:29:08;2.87;;;2.50;;
4244;SDS011;2136;48.502;9.194;2024-01-27T05:31:34;3.70;;;3.37;;
4244;SDS011;2136;48.502;9.194;2024-01-27T05:34:03;10.60;;;4.13;;
4244;SDS011;2136;48.502;9.194;2024-01-27T05:36:30;7.20;;;2.93;;
4244;SDS011;2136;48.502;9.194;2024-01-27T05:38:56;7.03;;;4.00;;
4244;SDS011;2136;48.502;9.194;2024-01-27T05:41:25;10.23;;;3.27;;
4244;SDS011;2136;48.502;9.194;2024-01-27T05:43:53;5.00;;;3.23;;
4244;SDS011;2136;48.502;9.194;2024-01-27T05:46:22;10.67;;;3.90;;
4244;SDS011;2136;48.502;9.194;2024-01-27T05:48:49;4.00;;;3.30;;
4244;SDS011;2136;48.502;9.194;2024-01-27T05:51:20;8.73;;;3.60;;
4244;SDS011;2136;48.502;9.194;2024-01-27T05:53:47;9.40;;;4.10;;
4244;SDS011;2136;48.502;9.194;2024-01-27T05:56:14;6.30;;;3.50;;
4244;SDS011;2136;48.502;9.194;2024-01-27T05:58:40;5.27;;;3.70;;
4244;SDS011;2136;48.502;9.194;2024-01-27T06:01:07;5.80;;;3.60;;
4244;SDS011;2136;48.502;9.194;2024-01-27T06:03:34;6.13;;;3.57;;
4244;SDS011;2136;48.502;9.194;2024-01-27T06:06:01;8.50;;;3.43;;
4244;SDS011;2136;48.502;9.194;2024-01-27T06:08:30;5.10;;;3.80;;
4244;SDS011;2136;48.502;9.194;2024-01-27T06:10:56;5.77;;;4.37;;
4244;SDS011;2136;48.502;9.194;2024-01-27T06:13:23;7.50;;;4.07;;
4244;SDS011;2136;48.502;9.194;2024-01-27T06:15:50;8.35;;;4.05;;
4244;SDS011;2136;48.502;9.194;2024-01-27T06:18:17;6.27;;;4.43;;
4244;SDS011;2136;48.502;9.194;2024-01-27T06:20:43;4.87;;;4.13;;
4244;SDS011;2136;48.502;9.194;2024-01-27T06:23:10;11.20;;;4.50;;
4244;SDS011;2136;48.502;9.194;2024-01-27T06:25:38;9.13;;;3.73;;
4244;SDS011;2136;48.502;9.194;2024-01-27T06:28:06;4.57;;;4.07;;
4244;SDS011;2136;48.502;9.194;2024-01-27T06:30:32;7.60;;;3.93;;
4244;SDS011;2136;48.502;9.194;2024-01-27T06:32:59;7.20;;;4.00;;
4244;SDS011;2136;48.502;9.194;2024-01-27T06:35:26;10.07;;;5.77;;
4244;SDS011;2136;48.502;9.194;2024-01-27T06:37:53;5.90;;;5.00;;
4244;SDS011;2136;48.502;9.194;2024-01-27T06:40:19;7.20;;;4.93;;
4244;SDS011;2136;48.502;9.194;2024-01-27T06:42:48;10.32;;;5.38;;
4244;SDS011;2136;48.502;9.194;2024-01-27T06:45:14;6.83;;;4.47;;
4244;SDS011;2136;48.502;9.194;2024-01-27T06:47:41;8.67;;;5.00;;
4244;SDS011;2136;48.502;9.194;2024-01-27T06:50:08;11.17;;;5.07;;
4244;SDS011;2136;48.502;9.194;2024-01-27T06:52:35;6.67;;;4.07;;
4244;SDS011;2136;48.502;9.194;2024-01-27T06:55:02;8.48;;;3.85;;
4244;SDS011;2136;48.502;9.194;2024-01-27T06:57:32;6.03;;;4.30;;
4244;SDS011;2136;48.502;9.194;2024-01-27T07:00:00;5.93;;;4.05;;
4244;SDS011;2136;48.502;9.194;2024-01-27T07:02:28;7.30;;;4.10;;
4244;SDS011;2136;48.502;9.194;2024-01-27T07:04:55;9.10;;;4.20;;
4244;SDS011;2136;48.502;9.194;2024-01-27T07:07:22;7.17;;;4.90;;
4244;SDS011;2136;48.502;9.194;2024-01-27T07:09:51;5.20;;;4.40;;
4244;SDS011;2136;48.502;9.194;2024-01-27T07:12:17;9.05;;;5.55;;
4244;SDS011;2136;48.502;9.194;2024-01-27T07:14:44;5.50;;;3.85;;
4244;SDS011;2136;48.502;9.194;2024-01-27T07:17:12;7.13;;;5.33;;
4244;SDS011;2136;48.502;9.194;2024-01-27T07:19:39;12.67;;;7.73;;
4244;SDS011;2136;48.502;9.194;2024-01-27T07:22:06;7.03;;;5.50;;
4244;SDS011;2136;48.502;9.194;2024-01-27T07:24:33;8.50;;;5.07;;
4244;SDS011;2136;48.502;9.194;2024-01-27T07:27:00;13.90;;;5.67;;
4244;SDS011;2136;48.502;9.194;2024-01-27T07:29:27;7.07;;;4.97;;
4244;SDS011;2136;48.502;9.194;2024-01-27T07:31:54;6.32;;;4.82;;
4244;SDS011;2136;48.502;9.194;2024-01-27T07:34:22;9.32;;;4.57;;
4244;SDS011;2136;48.502;9.194;2024-01-27T07:36:49;7.80;;;3.93;;
4244;SDS011;2136;48.502;9.194;2024-01-27T07:39:16;6.60;;;4.82;;
4244;SDS011;2136;48.502;9.194;2024-01-27T07:41:42;8.70;;;6.67;;
4244;SDS011;2136;48.502;9.194;2024-01-27T07:44:10;12.07;;;8.23;;
4244;SDS011;2136;48.502;9.194;2024-01-27T07:46:38;13.70;;;6.90;;
4244;SDS011;2136;48.502;9.194;2024-01-27T07:49:05;9.17;;;5.70;;
4244;SDS011;2136;48.502;9.194;2024-01-27T07:51:34;12.18;;;8.40;;
4244;SDS011;2136;48.502;9.194;2024-01-27T07:54:01;10.90;;;7.87;;
4244;SDS011;2136;48.502;9.194;2024-01-27T07:56:28;9.18;;;6.00;;
4244;SDS011;2136;48.502;9.194;2024-01-27T07:58:54;11.55;;;6.47;;
4244;SDS011;2136;48.502;9.194;2024-01-27T08:01:21;12.97;;;6.80;;
4244;SDS011;2136;48.502;9.194;2024-01-27T08:03:48;12.15;;;6.18;;
4244;SDS011;2136;48.502;9.194;2024-01-27T08:06:16;10.30;;;6.20;;
4244;SDS011;2136;48.502;9.194;2024-01-27T08:08:46;8.50;;;6.47;;
4244;SDS011;2136;48.502;9.194;2024-01-27T08:11:13;9.50;;;5.77;;
4244;SDS011;2136;48.502;9.194;2024-01-27T08:13:40;8.55;;;6.05;;
4244;SDS011;2136;48.502;9.194;2024-01-27T08:16:07;9.73;;;7.03;;
4244;SDS011;2136;48.502;9.194;2024-01-27T08:18:35;11.47;;;7.10;;
4244;SDS011;2136;48.502;9.194;2024-01-27T08:21:03;19.90;;;6.20;;
4244;SDS011;2136;48.502;9.194;2024-01-27T08:23:30;13.30;;;5.80;;
4244;SDS011;2136;48.502;9.194;2024-01-27T08:25:58;9.32;;;7.20;;
4244;SDS011;2136;48.502;9.194;2024-01-27T08:28:25;9.43;;;6.43;;
4244;SDS011;2136;48.502;9.194;2024-01-27T08:30:52;8.68;;;5.88;;
4244;SDS011;2136;48.502;9.194;2024-01-27T08:33:19;10.43;;;6.40;;
4244;SDS011;2136;48.502;9.194;2024-01-27T08:35:46;28.37;;;6.40;;
4244;SDS011;2136;48.502;9.194;2024-01-27T08:38:13;12.03;;;6.80;;
4244;SDS011;2136;48.502;9.194;2024-01-27T08:40:40;10.67;;;6.73;;
4244;SDS011;2136;48.502;9.194;2024-01-27T08:43:08;11.87;;;7.57;;
4244;SDS011;2136;48.502;9.194;2024-01-27T08:45:36;21.73;;;6.20;;
4244;SDS011;2136;48.502;9.194;2024-01-27T08:48:02;9.60;;;6.27;;
4244;SDS011;2136;48.502;9.194;2024-01-27T08:50:29;8.33;;;6.13;;
4244;SDS011;2136;48.502;9.194;2024-01-27T08:52:56;13.02;;;9.75;;
4244;SDS011;2136;48.502;9.194;2024-01-27T08:55:23;17.77;;;7.13;;
4244;SDS011;2136;48.502;9.194;2024-01-27T08:57:50;18.50;;;6.95;;
4244;SDS011;2136;48.502;9.194;2024-01-27T09:00:18;21.97;;;6.37;;
4244;SDS011;2136;48.502;9.194;2024-01-27T09:02:45;10.10;;;5.80;;
4244;SDS011;2136;48.502;9.194;2024-01-27T09:05:12;7.77;;;5.97;;
4244;SDS011;2136;48.502;9.194;2024-01-27T09:07:39;11.27;;;6.00;;
4244;SDS011;2136;48.502;9.194;2024-01-27T09:10:06;13.47;;;6.47;;
4244;SDS011;2136;48.502;9.194;2024-01-27T09:12:34;7.77;;;5.00;;
4244;SDS011;2136;48.502;9.194;2024-01-27T09:15:01;5.93;;;5.00;;
4244;SDS011;2136;48.502;9.194;2024-01-27T09:17:29;6.30;;;5.00;;
4244;SDS011;2136;48.502;9.194;2024-01-27T09:19:56;8.50;;;5.60;;
4244;SDS011;2136;48.502;9.194;2024-01-27T09:22:23;8.90;;;4.83;;
4244;SDS011;2136;48.502;9.194;2024-01-27T09:24:50;9.73;;;5.40;;
4244;SDS011;2136;48.502;9.194;2024-01-27T09:27:17;8.60;;;6.20;;
4244;SDS011;2136;48.502;9.194;2024-01-27T09:29:44;12.13;;;6.30;;
4244;SDS011;2136;48.502;9.194;2024-01-27T09:32:11;8.50;;;5.87;;
4244;SDS011;2136;48.502;9.194;2024-01-27T09:34:39;7.27;;;6.17;;
4244;SDS011;2136;48.502;9.194;2024-01-27T09:37:06;7.77;;;5.40;;
4244;SDS011;2136;48.502;9.194;2024-01-27T09:39:33;10.77;;;5.60;;
4244;SDS011;2136;48.502;9.194;2024-01-27T09:42:00;7.10;;;5.20;;
4244;SDS011;2136;48.502;9.194;2024-01-27T09:44:32;5.77;;;5.27;;
4244;SDS011;2136;48.502;9.194;2024-01-27T09:47:00;8.57;;;5.43;;
4244;SDS011;2136;48.502;9.194;2024-01-27T09:49:28;6.50;;;5.90;;
4244;SDS011;2136;48.502;9.194;2024-01-27T09:51:58;4.57;;;4.17;;
4244;SDS011;2136;48.502;9.194;2024-01-27T09:54:25;9.93;;;4.93;;
4244;SDS011;2136;48.502;9.194;2024-01-27T09:56:52;5.20;;;4.17;;
4244;SDS011;2136;48.502;9.194;2024-01-27T09:59:21;4.97;;;4.47;;
4244;SDS011;2136;48.502;9.194;2024-01-27T10:01:49;5.90;;;4.80;;
4244;SDS011;2136;48.502;9.194;2024-01-27T10:04:16;5.83;;;5.23;;
4244;SDS011;2136;48.502;9.194;2024-01-27T10:06:45;7.70;;;5.80;;
4244;SDS011;2136;48.502;9.194;2024-01-27T10:09:14;6.97;;;4.33;;
4244;SDS011;2136;48.502;9.194;2024-01-27T10:11:42;4.97;;;4.47;;
4244;SDS011;2136;48.502;9.194;2024-01-27T10:14:12;8.03;;;4.60;;
4244;SDS011;2136;48.502;9.194;2024-01-27T10:16:42;5.20;;;4.37;;
4244;SDS011;2136;48.502;9.194;2024-01-27T10:19:12;7.57;;;4.20;;
4244;SDS011;2136;48.502;9.194;2024-01-27T10:21:42;5.60;;;4.90;;
4244;SDS011;2136;48.502;9.194;2024-01-27T10:24:09;5.03;;;4.35;;
4244;SDS011;2136;48.502;9.194;2024-01-27T10:26:37;5.00;;;3.93;;
4244;SDS011;2136;48.502;9.194;2024-01-27T10:29:04;7.03;;;4.20;;
4244;SDS011;2136;48.502;9.194;2024-01-27T10:31:33;6.53;;;4.93;;
4244;SDS011;2136;48.502;9.194;2024-01-27T10:34:01;5.40;;;4.27;;
4244;SDS011;2136;48.502;9.194;2024-01-27T10:36:38;5.03;;;4.07;;
4244;SDS011;2136;48.502;9.194;2024-01-27T10:39:13;7.53;;;5.53;;
4244;SDS011;2136;48.502;9.194;2024-01-27T10:41:46;5.90;;;5.30;;
4244;SDS011;2136;48.502;9.194;2024-01-27T10:44:14;8.27;;;5.80;;
4244;SDS011;2136;48.502;9.194;2024-01-27T10:46:42;8.33;;;5.73;;
4244;SDS011;2136;48.502;9.194;2024-01-27T10:49:10;6.27;;;5.40;;
4244;SDS011;2136;48.502;9.194;2024-01-27T10:51:40;5.60;;;5.07;;
4244;SDS011;2136;48.502;9.194;2024-01-27T10:54:10;6.90;;;5.00;;
4244;SDS011;2136;48.502;9.194;2024-01-27T10:56:40;5.10;;;4.60;;
4244;SDS011;2136;48.502;9.194;2024-01-27T10:59:10;5.60;;;4.90;;
4244;SDS011;2136;48.502;9.194;2024-01-27T11:01:41;4.77;;;4.20;;
4244;SDS011;2136;48.502;9.194;2024-01-27T11:04:08;7.60;;;5.77;;
4244;SDS011;2136;48.502;9.194;2024-01-27T11:06:38;8.70;;;5.43;;
4244;SDS011;2136;48.502;9.194;2024-01-27T11:09:07;9.03;;;4.30;;
4244;SDS011;2136;48.502;9.194;2024-01-27T11:11:36;5.20;;;4.47;;
4244;SDS011;2136;48.502;9.194;2024-01-27T11:14:04;6.70;;;4.20;;
4244;SDS011;2136;48.502;9.194;2024-01-27T11:16:33;4.10;;;3.73;;
4244;SDS011;2136;48.502;9.194;2024-01-27T11:19:00;4.50;;;4.10;;
4244;SDS011;2136;48.502;9.194;2024-01-27T11:21:27;7.47;;;5.07;;
4244;SDS011;2136;48.502;9.194;2024-01-27T11:23:54;7.77;;;5.00;;
4244;SDS011;2136;48.502;9.194;2024-01-27T11:26:21;7.10;;;5.17;;
4244;SDS011;2136;48.502;9.194;2024-01-27T11:28:48;5.33;;;4.80;;
4244;SDS011;2136;48.502;9.194;2024-01-27T11:31:16;7.60;;;4.10;;
4244;SDS011;2136;48.502;9.194;2024-01-27T11:33:46;4.23;;;3.70;;
4244;SDS011;2136;48.502;9.194;2024-01-27T11:36:20;7.60;;;4.47;;
4244;SDS011;2136;48.502;9.194;2024-01-27T11:38:48;7.90;;;4.57;;
4244;SDS011;2136;48.502;9.194;2024-01-27T11:41:25;6.53;;;4.60;;
4244;SDS011;2136;48.502;9.194;2024-01-27T11:43:53;5.37;;;4.40;;
4244;SDS011;2136;48.502;9.194;2024-01-27T11:46:20;5.23;;;4.73;;
4244;SDS011;2136;48.502;9.194;2024-01-27T11:48:48;6.50;;;5.00;;
4244;SDS011;2136;48.502;9.194;2024-01-27T11:51:15;6.30;;;4.87;;
4244;SDS011;2136;48.502;9.194;2024-01-27T11:53:43;11.17;;;5.57;;
4244;SDS011;2136;48.502;9.194;2024-01-27T11:56:11;5.37;;;4.30;;
4244;SDS011;2136;48.502;9.194;2024-01-27T11:58:45;6.00;;;4.50;;
4244;SDS011;2136;48.502;9.194;2024-01-27T12:01:12;10.50;;;5.90;;
4244;SDS011;2136;48.502;9.194;2024-01-27T12:03:39;6.13;;;5.33;;
4244;SDS011;2136;48.502;9.194;2024-01-27T12:06:08;8.60;;;5.97;;
4244;SDS011;2136;48.502;9.194;2024-01-27T12:08:35;10.10;;;6.20;;
4244;SDS011;2136;48.502;9.194;2024-01-27T12:11:02;6.73;;;5.97;;
4244;SDS011;2136;48.502;9.194;2024-01-27T12:13:29;7.20;;;4.73;;
4244;SDS011;2136;48.502;9.194;2024-01-27T12:15:55;9.60;;;6.90;;
4244;SDS011;2136;48.502;9.194;2024-01-27T12:18:22;10.10;;;6.23;;
4244;SDS011;2136;48.502;9.194;2024-01-27T12:20:54;7.20;;;5.70;;
4244;SDS011;2136;48.502;9.194;2024-01-27T12:23:23;7.87;;;6.27;;
4244;SDS011;2136;48.502;9.194;2024-01-27T12:25:53;7.70;;;5.13;;
4244;SDS011;2136;48.502;9.194;2024-01-27T12:28:21;11.40;;;5.37;;
4244;SDS011;2136;48.502;9.194;2024-01-27T12:30:49;5.93;;;5.30;;
4244;SDS011;2136;48.502;9.194;2024-01-27T12:33:16;8.37;;;5.30;;
4244;SDS011;2136;48.502;9.194;2024-01-27T12:35:44;8.63;;;4.33;;
4244;SDS011;2136;48.502;9.194;2024-01-27T12:38:12;6.50;;;5.00;;
4244;SDS011;2136;48.502;9.194;2024-01-27T12:40:40;10.43;;;6.00;;
4244;SDS011;2136;48.502;9.194;2024-01-27T12:43:07;6.87;;;5.10;;
4244;SDS011;2136;48.502;9.194;2024-01-27T12:45:34;6.63;;;4.67;;
4244;SDS011;2136;48.502;9.194;2024-01-27T12:48:01;8.93;;;5.60;;
4244;SDS011;2136;48.502;9.194;2024-01-27T12:50:30;12.30;;;5.47;;
4244;SDS011;2136;48.502;9.194;2024-01-27T12:52:57;7.93;;;4.40;;
4244;SDS011;2136;48.502;9.194;2024-01-27T12:55:24;7.87;;;5.53;;
4244;SDS011;2136;48.502;9.194;2024-01-27T12:57:52;12.00;;;6.10;;
4244;SDS011;2136;48.502;9.194;2024-01-27T13:00:19;8.40;;;5.93;;
4244;SDS011;2136;48.502;9.194;2024-01-27T13:02:46;8.70;;;3.93;;
4244;SDS011;2136;48.502;9.194;2024-01-27T13:05:13;11.00;;;5.83;;
4244;SDS011;2136;48.502;9.194;2024-01-27T13:07:40;3.73;;;2.47;;
4244;SDS011;2136;48.502;9.194;2024-01-27T13:10:07;8.53;;;4.27;;
4244;SDS011;2136;48.502;9.194;2024-01-27T13:12:34;10.13;;;4.10;;
4244;SDS011;2136;48.502;9.194;2024-01-27T13:15:03;5.90;;;3.57;;
4244;SDS011;2136;48.502;9.194;2024-01-27T13:17:30;4.70;;;3.70;;
4244;SDS011;2136;48.502;9.194;2024-01-27T13:19:57;6.13;;;3.50;;
4244;SDS011;2136;48.502;9.194;2024-01-27T13:22:24;10.93;;;4.47;;
4244;SDS011;2136;48.502;9.194;2024-01-27T13:24:51;10.30;;;4.43;;
4244;SDS011;2136;48.502;9.194;2024-01-27T13:27:18;8.70;;;3.80;;
4244;SDS011;2136;48.502;9.194;2024-01-27T13:29:44;6.93;;;3.60;;
4244;SDS011;2136;48.502;9.194;2024-01-27T13:32:13;8.30;;;4.00;;
4244;SDS011;2136;48.502;9.194;2024-01-27T13:34:39;9.00;;;4.13;;
4244;SDS011;2136;48.502;9.194;2024-01-27T13:37:06;7.27;;;3.60;;
4244;SDS011;2136;48.502;9.194;2024-01-27T13:39:34;7.20;;;3.67;;
4244;SDS011;2136;48.502;9.194;2024-01-27T13:42:01;10.00;;;4.27;;
4244;SDS011;2136;48.502;9.194;2024-01-27T13:44:27;5.50;;;3.13;;
4244;SDS011;2136;48.502;9.194;2024-01-27T13:46:55;4.30;;;3.17;;
4244;SDS011;2136;48.502;9.194;2024-01-27T13:49:27;9.70;;;3.37;;
4244;SDS011;2136;48.502;9.194;2024-01-27T13:51:53;4.80;;;3.77;;
4244;SDS011;2136;48.502;9.194;2024-01-27T13:54:20;7.73;;;3.53;;
4244;SDS011;2136;48.502;9.194;2024-01-27T13:56:47;9.70;;;4.20;;
4244;SDS011;2136;48.502;9.194;2024-01-27T13:59:14;7.47;;;4.03;;
4244;SDS011;2136;48.502;9.194;2024-01-27T14:01:41;11.47;;;4.13;;
4244;SDS011;2136;48.502;9.194;2024-01-27T14:04:07;9.20;;;3.87;;
4244;SDS011;2136;48.502;9.194;2024-01-27T14:06:35;6.63;;;4.13;;
4244;SDS011;2136;48.502;9.194;2024-01-27T14:09:02;10.77;;;4.63;;
4244;SDS011;2136;48.502;9.194;2024-01-27T14:11:29;9.53;;;4.57;;
4244;SDS011;2136;48.502;9.194;2024-01-27T14:13:56;7.03;;;3.83;;
4244;SDS011;2136;48.502;9.194;2024-01-27T14:16:23;8.93;;;4.10;;
4244;SDS011;2136;48.502;9.194;2024-01-27T14:18:50;6.90;;;3.90;;
4244;SDS011;2136;48.502;9.194;2024-01-27T14:21:17;9.23;;;3.93;;
4244;SDS011;2136;48.502;9.194;2024-01-27T14:23:45;12.23;;;4.10;;
4244;SDS011;2136;48.502;9.194;2024-01-27T14:26:12;9.77;;;4.20;;
4244;SDS011;2136;48.502;9.194;2024-01-27T14:28:40;9.83;;;4.30;;
4244;SDS011;2136;48.502;9.194;2024-01-27T14:31:07;6.20;;;4.47;;
4244;SDS011;2136;48.502;9.194;2024-01-27T14:33:34;5.80;;;3.83;;
4244;SDS011;2136;48.502;9.194;2024-01-27T14:36:01;6.67;;;3.93;;
4244;SDS011;2136;48.502;9.194;2024-01-27T14:38:28;9.47;;;4.27;;
4244;SDS011;2136;48.502;9.194;2024-01-27T14:40:56;4.43;;;3.57;;
4244;SDS011;2136;48.502;9.194;2024-01-27T14:43:22;16.20;;;5.40;;
4244;SDS011;2136;48.502;9.194;2024-01-27T14:45:49;4.83;;;4.00;;
4244;SDS011;2136;48.502;9.194;2024-01-27T14:48:16;8.57;;;3.67;;
4244;SDS011;2136;48.502;9.194;2024-01-27T14:50:45;10.00;;;4.40;;
4244;SDS011;2136;48.502;9.194;2024-01-27T14:53:13;8.87;;;4.13;;
4244;SDS011;2136;48.502;9.194;2024-01-27T14:55:41;5.63;;;3.87;;
4244;SDS011;2136;48.502;9.194;2024-01-27T14:58:09;7.23;;;3.77;;
4244;SDS011;2136;48.502;9.194;2024-01-27T15:00:36;13.83;;;4.23;;
4244;SDS011;2136;48.502;9.194;2024-01-27T15:03:03;9.77;;;4.03;;
4244;SDS011;2136;48.502;9.194;2024-01-27T15:05:30;8.67;;;4.33;;
4244;SDS011;2136;48.502;9.194;2024-01-27T15:08:01;13.17;;;4.73;;
4244;SDS011;2136;48.502;9.194;2024-01-27T15:10:28;11.20;;;5.27;;
4244;SDS011;2136;48.502;9.194;2024-01-27T15:12:55;5.23;;;4.23;;